createdAt,value
2022-08-14T00:00:42.818Z,44.63
2022-08-14T00:01:42.799Z,50.60
2022-08-14T00:02:44.299Z,51.08
2022-08-14T00:03:42.781Z,48.50
2022-08-14T00:04:45.428Z,54.30
2022-08-14T00:05:44.270Z,57.36
2022-08-14T00:06:42.746Z,52.05
2022-08-14T00:07:42.760Z,49.95
2022-08-14T00:08:44.595Z,54.62
2022-08-14T00:10:01.480Z,50.43
2022-08-14T00:10:51.825Z,52.21
2022-08-14T00:11:43.736Z,53.01
2022-08-14T00:12:42.714Z,51.08
2022-08-14T00:13:43.684Z,46.89
2022-08-14T00:14:43.675Z,51.40
2022-08-14T00:15:44.123Z,47.53
2022-08-14T00:16:44.769Z,54.95
2022-08-14T00:17:48.111Z,49.31
2022-08-14T00:19:05.559Z,55.27
2022-08-14T00:19:43.620Z,47.53
2022-08-14T00:20:43.283Z,51.56
2022-08-14T00:21:42.608Z,49.79
2022-08-14T00:22:56.971Z,57.52
2022-08-14T00:23:43.588Z,49.95
2022-08-14T00:24:43.578Z,46.41
2022-08-14T00:25:42.865Z,55.27
2022-08-14T00:26:43.561Z,56.24
2022-08-14T00:27:42.591Z,52.21
2022-08-14T00:28:42.539Z,57.04
2022-08-14T00:29:43.118Z,52.69
2022-08-14T00:30:42.791Z,54.79
2022-08-14T00:31:44.231Z,53.33
2022-08-14T00:32:55.694Z,49.31
2022-08-14T00:33:52.123Z,51.24
2022-08-14T00:34:47.162Z,55.91
2022-08-14T00:36:38.894Z,55.75
2022-08-14T00:36:49.237Z,46.73
2022-08-14T00:37:43.495Z,57.69
2022-08-14T00:38:42.453Z,42.86
2022-08-14T00:39:42.612Z,57.69
2022-08-14T00:40:46.268Z,49.47
2022-08-14T00:41:42.572Z,55.43
2022-08-14T00:42:55.119Z,53.33
2022-08-14T00:43:43.439Z,53.33
2022-08-14T00:44:42.680Z,54.30
2022-08-14T00:45:42.375Z,53.50
2022-08-14T00:46:42.365Z,54.30
2022-08-14T00:47:43.202Z,54.95
2022-08-14T00:48:42.360Z,49.95
2022-08-14T00:49:43.686Z,46.89
2022-08-14T00:50:42.331Z,56.40
2022-08-14T00:51:42.317Z,48.02
2022-08-14T00:52:42.402Z,49.79
2022-08-14T00:53:43.701Z,38.51
2022-08-14T00:54:42.288Z,46.08
2022-08-14T00:55:42.765Z,48.34
2022-08-14T00:56:42.271Z,48.98
2022-08-14T00:57:42.257Z,48.98
2022-08-14T00:58:48.196Z,56.24
2022-08-14T00:59:43.238Z,52.05
2022-08-14T01:00:47.592Z,53.33
2022-08-14T01:01:43.298Z,55.11
2022-08-14T01:02:42.254Z,54.95
2022-08-14T01:03:42.562Z,58.01
2022-08-14T01:04:54.143Z,53.01
2022-08-14T01:05:51.624Z,53.66
2022-08-14T01:06:43.165Z,50.92
2022-08-14T01:07:54.089Z,56.40
2022-08-14T01:08:52.043Z,55.91
2022-08-14T01:09:44.147Z,51.08
2022-08-14T01:10:42.128Z,47.37
2022-08-14T01:11:45.126Z,51.08
2022-08-14T01:12:43.382Z,55.11
2022-08-14T01:13:43.238Z,48.50
2022-08-14T01:14:42.092Z,53.33
2022-08-14T01:15:58.329Z,44.31
2022-08-14T01:16:43.068Z,54.95
2022-08-14T01:17:45.870Z,49.79
2022-08-14T01:18:44.091Z,47.21
2022-08-14T01:19:43.302Z,51.24
2022-08-14T01:20:42.059Z,54.30
2022-08-14T01:21:46.670Z,52.53
2022-08-14T01:22:43.210Z,52.21
2022-08-14T01:23:46.623Z,44.15
2022-08-14T01:24:43.491Z,51.88
2022-08-14T01:25:41.986Z,44.79
2022-08-14T01:26:41.990Z,53.17
2022-08-14T01:27:53.983Z,53.17
2022-08-14T01:28:56.256Z,47.70
2022-08-14T01:29:58.860Z,44.47
2022-08-14T01:30:42.933Z,52.05
2022-08-14T01:31:41.924Z,47.21
2022-08-14T01:32:42.688Z,46.41
2022-08-14T01:33:59.710Z,49.15
2022-08-14T01:35:18.014Z,57.20
2022-08-14T01:36:03.461Z,54.30
2022-08-14T01:36:42.873Z,56.72
2022-08-14T01:37:43.963Z,45.76
2022-08-14T01:38:41.861Z,53.50
2022-08-14T01:39:41.922Z,57.36
2022-08-14T01:40:42.182Z,52.05
2022-08-14T01:41:41.835Z,57.36
2022-08-14T01:42:41.857Z,55.75
2022-08-14T01:43:41.811Z,46.73
2022-08-14T01:44:42.819Z,45.12
2022-08-14T01:45:42.792Z,56.24
2022-08-14T01:46:42.779Z,57.20
2022-08-14T01:47:41.770Z,49.95
2022-08-14T01:48:41.763Z,55.11
2022-08-14T01:49:46.553Z,55.43
2022-08-14T01:50:42.732Z,53.98
2022-08-14T01:51:42.735Z,50.11
2022-08-14T01:52:58.565Z,57.52
2022-08-14T01:53:42.712Z,44.96
2022-08-14T01:54:41.717Z,39.96
2022-08-14T01:55:41.690Z,55.11
2022-08-14T01:56:41.680Z,53.01
2022-08-14T01:57:55.316Z,56.40
2022-08-14T01:58:57.791Z,53.50
2022-08-14T01:59:43.870Z,50.43
2022-08-14T02:00:41.650Z,57.36
2022-08-14T02:01:42.018Z,49.47
2022-08-14T02:02:42.622Z,42.22
2022-08-14T02:03:41.616Z,49.31
2022-08-14T02:04:57.273Z,42.22
2022-08-14T02:05:42.612Z,53.17
2022-08-14T02:06:41.579Z,42.38
2022-08-14T02:07:53.465Z,54.46
2022-08-14T02:08:52.588Z,55.27
2022-08-14T02:09:42.585Z,54.79
2022-08-14T02:10:47.426Z,56.24
2022-08-14T02:11:42.532Z,54.62
2022-08-14T02:12:42.203Z,56.40
2022-08-14T02:13:43.180Z,56.88
2022-08-14T02:14:50.783Z,50.60
2022-08-14T02:15:43.724Z,55.43
2022-08-14T02:16:41.586Z,49.79
2022-08-14T02:17:41.472Z,49.63
2022-08-14T02:18:41.463Z,47.21
2022-08-14T02:19:41.481Z,55.27
2022-08-14T02:20:41.460Z,50.43
2022-08-14T02:21:43.699Z,55.75
2022-08-14T02:22:47.883Z,51.72
2022-08-14T02:23:42.414Z,51.08
2022-08-14T02:24:45.172Z,58.81
2022-08-14T02:25:42.409Z,49.47
2022-08-14T02:28:18.418Z,55.91
2022-08-14T02:28:24.683Z,54.46
2022-08-14T02:28:56.811Z,57.85
2022-08-14T02:29:59.988Z,52.53
2022-08-14T02:30:42.359Z,51.56
2022-08-14T02:31:43.342Z,50.11
2022-08-14T02:32:41.328Z,55.59
2022-08-14T02:33:41.330Z,50.92
2022-08-14T02:34:41.484Z,48.66
2022-08-14T02:35:41.328Z,50.60
2022-08-14T02:37:04.947Z,56.07
2022-08-14T02:37:48.114Z,57.20
2022-08-14T02:38:42.274Z,53.82
2022-08-14T02:39:41.301Z,54.62
2022-08-14T02:40:41.266Z,54.95
2022-08-14T02:41:44.962Z,53.66
2022-08-14T02:42:54.076Z,58.97
2022-08-14T02:43:48.213Z,54.95
2022-08-14T02:44:42.205Z,56.40
2022-08-14T02:45:44.775Z,58.01
2022-08-14T02:46:41.265Z,50.92
2022-08-14T02:47:41.184Z,54.14
2022-08-14T02:49:03.202Z,53.50
2022-08-14T02:49:42.745Z,54.46
2022-08-14T02:50:41.197Z,57.36
2022-08-14T02:51:41.143Z,49.95
2022-08-14T02:52:55.947Z,56.40
2022-08-14T02:53:42.258Z,46.08
2022-08-14T02:54:41.120Z,52.85
2022-08-14T02:55:41.143Z,54.14
2022-08-14T02:57:15.530Z,46.41
2022-08-14T02:57:42.094Z,55.11
2022-08-14T02:58:42.290Z,54.30
2022-08-14T02:59:43.329Z,55.43
2022-08-14T03:00:41.063Z,54.62
2022-08-14T03:01:43.437Z,53.66
2022-08-14T03:02:56.600Z,51.40
2022-08-14T03:03:42.032Z,55.75
2022-08-14T03:04:41.021Z,48.66
2022-08-14T03:05:41.799Z,53.01
2022-08-14T03:06:57.565Z,53.17
2022-08-14T03:07:42.009Z,53.66
2022-08-14T03:08:41.585Z,50.76
2022-08-14T03:10:27.807Z,49.79
2022-08-14T03:10:48.943Z,56.40
2022-08-14T03:11:44.574Z,57.69
2022-08-14T03:12:41.043Z,57.04
2022-08-14T03:13:40.938Z,52.85
2022-08-14T03:14:40.945Z,52.69
2022-08-14T03:15:40.915Z,56.24
2022-08-14T03:16:40.916Z,54.30
2022-08-14T03:17:57.197Z,57.04
2022-08-14T03:18:41.885Z,57.04
2022-08-14T03:19:40.875Z,56.40
2022-08-14T03:20:40.866Z,56.40
2022-08-14T03:21:40.880Z,51.08
2022-08-14T03:22:41.995Z,55.43
2022-08-14T03:23:40.839Z,57.52
2022-08-14T03:24:40.825Z,54.14
2022-08-14T03:25:40.832Z,49.79
2022-08-14T03:26:40.839Z,50.43
2022-08-14T03:27:47.720Z,51.88
2022-08-14T03:28:42.264Z,56.40
2022-08-14T03:30:14.484Z,51.56
2022-08-14T03:30:40.986Z,57.20
2022-08-14T03:31:40.789Z,57.20
2022-08-14T03:32:40.822Z,56.56
2022-08-14T03:33:40.742Z,55.43
2022-08-14T03:34:53.059Z,54.95
2022-08-14T03:36:00.237Z,58.49
2022-08-14T03:37:51.459Z,52.21
2022-08-14T03:39:11.762Z,57.04
2022-08-14T03:39:14.330Z,55.11
2022-08-14T03:39:41.714Z,55.27
2022-08-14T03:40:40.672Z,60.75
2022-08-14T03:41:40.660Z,58.33
2022-08-14T03:42:40.733Z,57.36
2022-08-14T03:43:40.640Z,55.43
2022-08-14T03:45:19.789Z,55.75
2022-08-14T03:45:48.622Z,57.52
2022-08-14T03:46:54.829Z,51.40
2022-08-14T03:47:55.909Z,56.56
2022-08-14T03:48:41.594Z,57.36
2022-08-14T03:49:42.097Z,48.98
2022-08-14T03:50:40.572Z,57.52
2022-08-14T03:51:40.562Z,53.17
2022-08-14T03:52:47.841Z,53.33
2022-08-14T03:53:41.542Z,57.85
2022-08-14T03:54:40.532Z,45.76
2022-08-14T03:55:40.523Z,54.14
2022-08-14T03:56:40.512Z,55.75
2022-08-14T03:57:40.639Z,51.56
2022-08-14T03:58:40.495Z,53.66
2022-08-14T03:59:40.489Z,56.56
2022-08-14T04:00:44.750Z,59.14
2022-08-14T04:01:45.607Z,58.65
2022-08-14T04:02:41.740Z,55.75
2022-08-14T04:03:41.447Z,58.97
2022-08-14T04:04:40.444Z,49.95
2022-08-14T04:05:43.259Z,56.88
2022-08-14T04:06:42.574Z,56.88
2022-08-14T04:07:49.911Z,51.40
2022-08-14T04:08:41.894Z,52.69
2022-08-14T04:09:40.387Z,54.46
2022-08-14T04:10:40.386Z,52.37
2022-08-14T04:11:40.373Z,50.60
2022-08-14T04:12:40.408Z,57.52
2022-08-14T04:13:41.363Z,57.04
2022-08-14T04:14:40.338Z,57.69
2022-08-14T04:15:55.689Z,58.97
2022-08-14T04:16:41.321Z,55.75
2022-08-14T04:17:40.310Z,60.75
2022-08-14T04:18:40.318Z,58.49
2022-08-14T04:19:40.299Z,56.40
2022-08-14T04:20:51.568Z,57.20
2022-08-14T04:22:02.938Z,57.85
2022-08-14T04:22:41.260Z,58.01
2022-08-14T04:23:40.265Z,54.30
2022-08-14T04:24:40.244Z,56.88
2022-08-14T04:25:40.228Z,54.95
2022-08-14T04:26:43.031Z,57.52
2022-08-14T04:27:48.648Z,56.88
2022-08-14T04:29:01.606Z,57.52
2022-08-14T04:29:41.195Z,59.62
2022-08-14T04:30:42.232Z,53.33
2022-08-14T04:33:00.674Z,60.26
2022-08-14T04:33:01.887Z,59.46
2022-08-14T04:33:41.174Z,59.62
2022-08-14T04:34:42.017Z,56.07
2022-08-14T04:35:56.056Z,58.81
2022-08-14T04:36:41.124Z,53.82
2022-08-14T04:37:40.114Z,59.78
2022-08-14T04:38:40.145Z,60.10
2022-08-14T04:39:46.254Z,58.01
2022-08-14T04:40:41.083Z,56.40
2022-08-14T04:41:40.077Z,52.69
2022-08-14T04:42:47.380Z,59.46
2022-08-14T04:43:41.100Z,59.14
2022-08-14T04:44:40.050Z,57.85
2022-08-14T04:45:40.033Z,53.82
2022-08-14T04:46:56.789Z,58.49
2022-08-14T04:47:46.390Z,52.85
2022-08-14T04:48:43.720Z,57.52
2022-08-14T04:49:57.029Z,53.01
2022-08-14T04:50:44.829Z,58.65
2022-08-14T04:51:46.878Z,59.94
2022-08-14T04:52:40.966Z,58.01
2022-08-14T04:53:43.183Z,59.30
2022-08-14T04:54:39.962Z,56.24
2022-08-14T04:55:39.936Z,59.78
2022-08-14T04:56:39.935Z,55.43
2022-08-14T04:57:39.919Z,59.46
2022-08-14T04:58:39.910Z,54.30
2022-08-14T04:59:39.918Z,55.75
2022-08-14T05:00:39.916Z,57.69
2022-08-14T05:01:40.561Z,60.26
2022-08-14T05:02:39.921Z,59.46
2022-08-14T05:03:39.862Z,56.07
2022-08-14T05:04:39.965Z,59.78
2022-08-14T05:05:40.859Z,60.59
2022-08-14T05:06:39.920Z,58.97
2022-08-14T05:07:54.288Z,53.50
2022-08-14T05:08:50.761Z,60.59
2022-08-14T05:09:47.740Z,57.69
2022-08-14T05:10:44.011Z,57.85
2022-08-14T05:11:40.790Z,57.52
2022-08-14T05:13:13.123Z,57.36
2022-08-14T05:14:16.669Z,54.79
2022-08-14T05:14:53.279Z,55.11
2022-08-14T05:15:40.740Z,56.88
2022-08-14T05:16:39.823Z,55.43
2022-08-14T05:17:44.046Z,57.04
2022-08-14T05:19:18.374Z,50.92
2022-08-14T05:19:45.060Z,58.97
2022-08-14T05:21:54.200Z,55.75
2022-08-14T05:21:59.880Z,59.78
2022-08-14T05:22:40.677Z,53.66
2022-08-14T05:23:39.667Z,52.69
2022-08-14T05:24:39.673Z,59.14
2022-08-14T05:25:39.661Z,57.69
2022-08-14T05:26:39.635Z,57.85
2022-08-14T05:27:39.624Z,58.49
2022-08-14T05:28:39.616Z,54.62
2022-08-14T05:29:39.624Z,58.65
2022-08-14T05:30:39.607Z,58.49
2022-08-14T05:31:40.669Z,54.79
2022-08-14T05:32:39.575Z,57.85
2022-08-14T05:33:39.569Z,59.30
2022-08-14T05:34:39.602Z,60.42
2022-08-14T05:35:39.569Z,57.36
2022-08-14T05:36:39.539Z,57.52
2022-08-14T05:37:39.531Z,54.46
2022-08-14T05:38:40.523Z,60.42
2022-08-14T05:39:39.581Z,57.20
2022-08-14T05:40:39.522Z,60.91
2022-08-14T05:41:53.698Z,60.75
2022-08-14T05:42:40.484Z,59.30
2022-08-14T05:43:41.626Z,58.81
2022-08-14T05:44:39.482Z,59.30
2022-08-14T05:45:39.470Z,58.81
2022-08-14T05:46:39.445Z,59.30
2022-08-14T05:47:39.822Z,59.14
2022-08-14T05:48:43.405Z,58.33
2022-08-14T05:49:39.432Z,60.42
2022-08-14T05:50:39.420Z,58.17
2022-08-14T05:51:39.381Z,59.94
2022-08-14T05:52:40.429Z,59.30
2022-08-14T05:53:42.424Z,59.14
2022-08-14T05:54:39.383Z,57.20
2022-08-14T05:55:42.765Z,58.97
2022-08-14T05:56:40.348Z,57.36
2022-08-14T05:57:39.339Z,58.81
2022-08-14T05:58:40.932Z,57.20
2022-08-14T05:59:40.123Z,59.62
2022-08-14T06:00:39.523Z,58.97
2022-08-14T06:01:40.329Z,55.59
2022-08-14T06:02:39.290Z,61.07
2022-08-14T06:03:40.285Z,60.91
2022-08-14T06:04:39.307Z,57.36
2022-08-14T06:05:39.312Z,56.40
2022-08-14T06:06:39.254Z,59.14
2022-08-14T06:07:39.242Z,58.17
2022-08-14T06:08:41.337Z,58.97
2022-08-14T06:09:40.449Z,58.97
2022-08-14T06:10:39.229Z,57.36
2022-08-14T06:11:39.210Z,58.81
2022-08-14T06:12:56.636Z,58.65
2022-08-14T06:13:41.095Z,58.97
2022-08-14T06:14:40.217Z,60.59
2022-08-14T06:15:39.167Z,59.46
2022-08-14T06:16:39.153Z,58.33
2022-08-14T06:17:47.007Z,57.52
2022-08-14T06:18:40.142Z,57.36
2022-08-14T06:19:39.126Z,58.49
2022-08-14T06:20:39.137Z,57.69
2022-08-14T06:21:39.111Z,59.78
2022-08-14T06:22:39.102Z,59.30
2022-08-14T06:23:39.089Z,57.69
2022-08-14T06:24:39.080Z,57.36
2022-08-14T06:25:39.084Z,53.01
2022-08-14T06:26:39.067Z,57.69
2022-08-14T06:27:39.048Z,58.97
2022-08-14T06:28:39.040Z,60.10
2022-08-14T06:29:39.032Z,60.59
2022-08-14T06:30:46.248Z,59.14
2022-08-14T06:31:40.012Z,58.81
2022-08-14T06:32:39.459Z,60.42
2022-08-14T06:35:01.317Z,59.62
2022-08-14T06:35:04.293Z,53.33
2022-08-14T06:35:39.990Z,58.81
2022-08-14T06:36:39.384Z,56.88
2022-08-14T06:37:38.955Z,56.72
2022-08-14T06:38:38.941Z,56.88
2022-08-14T06:39:38.996Z,57.36
2022-08-14T06:40:42.831Z,58.81
2022-08-14T06:41:57.093Z,57.85
2022-08-14T06:42:39.905Z,57.69
2022-08-14T06:43:38.900Z,58.65
2022-08-14T06:44:39.882Z,57.04
2022-08-14T06:45:38.904Z,58.49
2022-08-14T06:46:38.871Z,57.69
2022-08-14T06:47:38.860Z,57.52
2022-08-14T06:48:39.845Z,59.14
2022-08-14T06:49:44.127Z,56.72
2022-08-14T06:50:39.862Z,56.72
2022-08-14T06:51:44.801Z,57.69
2022-08-14T06:52:39.870Z,58.49
2022-08-14T06:53:39.798Z,57.69
2022-08-14T06:54:38.789Z,58.97
2022-08-14T06:55:40.803Z,61.23
2022-08-14T06:56:39.768Z,61.39
2022-08-14T06:57:38.793Z,58.65
2022-08-14T06:58:38.746Z,59.14
2022-08-14T06:59:38.742Z,59.46
2022-08-14T07:00:38.766Z,58.81
2022-08-14T07:01:38.759Z,57.52
2022-08-14T07:02:43.738Z,59.14
2022-08-14T07:03:39.706Z,58.33
2022-08-14T07:04:38.698Z,57.36
2022-08-14T07:05:38.727Z,60.26
2022-08-14T07:06:47.029Z,60.26
2022-08-14T07:07:39.671Z,59.62
2022-08-14T07:08:38.659Z,59.30
2022-08-14T07:09:43.865Z,60.26
2022-08-14T07:10:39.690Z,59.78
2022-08-14T07:11:38.633Z,58.01
2022-08-14T07:13:01.705Z,58.65
2022-08-14T07:13:39.619Z,62.20
2022-08-14T07:14:38.604Z,59.46
2022-08-14T07:15:39.602Z,57.36
2022-08-14T07:16:38.599Z,59.62
2022-08-14T07:17:38.573Z,57.36
2022-08-14T07:18:40.803Z,61.07
2022-08-14T07:19:38.555Z,58.33
2022-08-14T07:20:38.545Z,59.46
2022-08-14T07:21:38.552Z,60.26
2022-08-14T07:22:50.256Z,58.49
2022-08-14T07:23:40.160Z,58.97
2022-08-14T07:24:38.512Z,59.30
2022-08-14T07:25:38.508Z,58.81
2022-08-14T07:26:38.793Z,59.78
2022-08-14T07:27:38.485Z,62.36
2022-08-14T07:28:42.914Z,56.88
2022-08-14T07:29:40.357Z,61.07
2022-08-14T07:30:42.088Z,61.87
2022-08-14T07:31:39.464Z,58.17
2022-08-14T07:32:38.437Z,59.14
2022-08-14T07:33:41.882Z,59.14
2022-08-14T07:34:41.260Z,60.10
2022-08-14T07:35:57.451Z,60.91
2022-08-14T07:36:39.421Z,59.14
2022-08-14T07:37:39.398Z,60.26
2022-08-14T07:38:38.385Z,59.94
2022-08-14T07:39:38.571Z,60.10
2022-08-14T07:40:38.373Z,62.20
2022-08-14T07:41:38.372Z,59.78
2022-08-14T07:42:38.346Z,59.46
2022-08-14T07:43:38.337Z,64.29
2022-08-14T07:44:46.250Z,61.23
2022-08-14T07:45:39.368Z,60.91
2022-08-14T07:46:38.327Z,60.10
2022-08-14T07:47:38.302Z,59.46
2022-08-14T07:48:38.342Z,60.75
2022-08-14T07:49:38.437Z,61.07
2022-08-14T07:50:38.276Z,61.55
2022-08-14T07:51:38.284Z,60.42
2022-08-14T07:52:38.260Z,60.10
2022-08-14T07:53:39.265Z,60.42
2022-08-14T07:54:38.239Z,60.26
2022-08-14T07:55:38.233Z,60.59
2022-08-14T07:56:47.739Z,64.13
2022-08-14T07:57:39.206Z,63.16
2022-08-14T07:58:38.840Z,61.55
2022-08-14T07:59:42.419Z,60.10
2022-08-14T08:00:38.191Z,61.23
2022-08-14T08:01:38.204Z,60.42
2022-08-14T08:02:40.820Z,63.65
2022-08-14T08:03:38.222Z,59.46
2022-08-14T08:04:38.339Z,62.36
2022-08-14T08:05:38.136Z,62.20
2022-08-14T08:06:38.125Z,60.26
2022-08-14T08:07:39.187Z,61.07
2022-08-14T08:08:38.105Z,59.46
2022-08-14T08:09:38.095Z,61.55
2022-08-14T08:11:01.506Z,62.36
2022-08-14T08:11:39.076Z,63.65
2022-08-14T08:12:38.098Z,59.62
2022-08-14T08:13:39.369Z,60.91
2022-08-14T08:14:55.526Z,61.39
2022-08-14T08:15:39.035Z,62.36
2022-08-14T08:16:38.031Z,62.68
2022-08-14T08:17:38.287Z,60.26
2022-08-14T08:18:38.013Z,63.65
2022-08-14T08:19:39.835Z,60.42
2022-08-14T08:20:37.986Z,62.36
2022-08-14T08:21:38.063Z,62.52
2022-08-14T08:22:38.984Z,60.75
2022-08-14T08:23:40.645Z,60.42
2022-08-14T08:24:38.961Z,60.91
2022-08-14T08:25:40.213Z,60.26
2022-08-14T08:26:37.933Z,59.30
2022-08-14T08:27:37.964Z,62.84
2022-08-14T08:28:38.910Z,61.23
2022-08-14T08:29:37.905Z,60.10
2022-08-14T08:30:37.895Z,61.55
2022-08-14T08:31:38.892Z,60.26
2022-08-14T08:32:37.919Z,59.46
2022-08-14T08:33:37.972Z,59.46
2022-08-14T08:34:37.857Z,62.52
2022-08-14T08:35:46.866Z,62.20
2022-08-14T08:36:38.833Z,59.78
2022-08-14T08:37:40.314Z,61.39
2022-08-14T08:39:15.232Z,60.75
2022-08-14T08:40:01.635Z,61.71
2022-08-14T08:40:42.330Z,60.75
2022-08-14T08:41:37.798Z,61.23
2022-08-14T08:42:38.636Z,62.20
2022-08-14T08:43:38.789Z,59.62
2022-08-14T08:44:37.766Z,63.81
2022-08-14T08:45:37.756Z,61.07
2022-08-14T08:46:37.737Z,61.71
2022-08-14T08:47:38.736Z,60.59
2022-08-14T08:48:43.256Z,61.39
2022-08-14T08:49:42.327Z,63.65
2022-08-14T08:52:25.154Z,60.10
2022-08-14T08:53:23.941Z,61.23
2022-08-14T08:54:26.668Z,61.39
2022-08-14T08:55:23.921Z,58.97
2022-08-14T08:56:30.291Z,59.30
2022-08-14T08:57:24.090Z,60.91
2022-08-14T08:58:25.307Z,61.55
2022-08-14T08:59:27.359Z,59.94
2022-08-14T09:00:25.127Z,60.59
2022-08-14T09:01:22.910Z,59.62
2022-08-14T09:02:22.859Z,61.07
2022-08-14T09:03:22.840Z,61.87
2022-08-14T09:04:23.982Z,61.07
2022-08-14T09:05:23.952Z,60.26
2022-08-14T09:07:09.483Z,60.42
2022-08-14T09:07:25.933Z,60.10
2022-08-14T09:08:31.075Z,61.07
2022-08-14T09:09:24.928Z,58.81
2022-08-14T09:10:26.013Z,60.10
2022-08-14T09:11:23.892Z,60.75
2022-08-14T09:12:23.887Z,63.16
2022-08-14T09:13:23.872Z,59.62
2022-08-14T09:14:23.916Z,58.65
2022-08-14T09:15:24.036Z,63.49
2022-08-14T09:16:25.059Z,61.23
2022-08-14T09:17:26.115Z,64.45
2022-08-14T09:18:23.901Z,65.58
2022-08-14T09:19:23.876Z,61.39
2022-08-14T09:20:27.480Z,60.75
2022-08-14T09:21:31.228Z,63.97
2022-08-14T09:22:35.642Z,64.78
2022-08-14T09:23:27.419Z,61.39
2022-08-14T09:24:28.053Z,64.61
2022-08-14T09:26:00.779Z,60.59
2022-08-14T09:26:24.747Z,61.39
2022-08-14T09:27:23.738Z,62.84
2022-08-14T09:28:24.192Z,61.71
2022-08-14T09:29:23.833Z,61.87
2022-08-14T09:30:32.303Z,59.14
2022-08-14T09:31:24.707Z,60.59
2022-08-14T09:32:59.001Z,60.59
2022-08-14T09:33:24.698Z,60.42
2022-08-14T09:34:27.896Z,60.91
2022-08-14T09:35:23.683Z,62.68
2022-08-14T09:36:23.656Z,60.42
2022-08-14T09:37:23.646Z,60.42
2022-08-14T09:38:26.023Z,62.68
2022-08-14T09:39:23.851Z,63.81
2022-08-14T09:40:23.722Z,61.39
2022-08-14T09:41:23.614Z,64.13
2022-08-14T09:42:33.379Z,60.91
2022-08-14T09:43:24.590Z,60.59
2022-08-14T09:44:23.581Z,60.59
2022-08-14T09:45:23.597Z,63.65
2022-08-14T09:46:25.560Z,61.87
2022-08-14T09:47:23.551Z,63.16
2022-08-14T09:48:30.098Z,61.39
2022-08-14T09:49:24.531Z,64.94
2022-08-14T09:50:25.785Z,63.65
2022-08-14T09:51:25.345Z,62.68
2022-08-14T09:52:33.161Z,61.87
2022-08-14T09:53:24.489Z,62.52
2022-08-14T09:54:24.480Z,61.23
2022-08-14T09:55:23.469Z,62.04
2022-08-14T09:56:24.284Z,58.97
2022-08-14T09:57:24.448Z,62.20
2022-08-14T09:58:24.772Z,61.71
2022-08-14T09:59:23.431Z,60.26
2022-08-14T10:00:28.302Z,64.13
2022-08-14T10:01:24.849Z,63.65
2022-08-14T10:02:23.410Z,66.87
2022-08-14T10:03:23.393Z,63.33
2022-08-14T10:04:34.330Z,62.84
2022-08-14T10:05:24.373Z,60.91
2022-08-14T10:06:23.383Z,61.07
2022-08-14T10:07:23.368Z,62.84
2022-08-14T10:08:25.755Z,62.20
2022-08-14T10:09:23.340Z,63.16
2022-08-14T10:10:24.107Z,62.04
2022-08-14T10:11:23.987Z,61.71
2022-08-14T10:12:28.713Z,60.91
2022-08-14T10:13:24.303Z,61.07
2022-08-14T10:14:35.038Z,61.07
2022-08-14T10:15:24.286Z,62.20
2022-08-14T10:16:27.227Z,60.59
2022-08-14T10:17:23.265Z,60.59
2022-08-14T10:18:23.255Z,61.55
2022-08-14T10:19:23.251Z,64.61
2022-08-14T10:20:39.999Z,65.90
2022-08-14T10:21:24.270Z,62.20
2022-08-14T10:23:13.282Z,61.07
2022-08-14T10:23:24.624Z,62.84
2022-08-14T10:24:23.364Z,63.81
2022-08-14T10:25:24.293Z,63.49
2022-08-14T10:26:28.428Z,63.97
2022-08-14T10:27:24.197Z,61.87
2022-08-14T10:28:39.529Z,62.20
2022-08-14T10:29:24.153Z,62.84
2022-08-14T10:30:25.583Z,61.55
2022-08-14T10:31:25.513Z,61.23
2022-08-14T10:32:29.255Z,61.23
2022-08-14T10:33:24.116Z,62.52
2022-08-14T10:34:35.745Z,60.59
2022-08-14T10:35:30.978Z,60.42
2022-08-14T10:36:35.077Z,63.16
2022-08-14T10:37:27.853Z,59.94
2022-08-14T10:38:23.069Z,62.04
2022-08-14T10:39:23.081Z,59.78
2022-08-14T10:40:37.810Z,59.30
2022-08-14T10:41:24.044Z,59.14
2022-08-14T10:42:24.050Z,59.30
2022-08-14T10:43:24.232Z,59.14
2022-08-14T10:44:23.023Z,59.14
2022-08-14T10:45:23.010Z,59.14
2022-08-14T10:47:37.075Z,58.97
2022-08-14T10:47:41.210Z,60.10
2022-08-14T10:48:36.647Z,60.59
2022-08-14T10:49:23.962Z,60.59
2022-08-14T10:50:22.960Z,58.33
2022-08-14T10:51:22.949Z,57.85
2022-08-14T10:52:22.976Z,59.46
2022-08-14T10:53:22.921Z,60.75
2022-08-14T10:54:36.158Z,60.91
2022-08-14T10:55:23.936Z,59.30
2022-08-14T10:56:34.063Z,58.49
2022-08-14T10:57:23.919Z,59.46
2022-08-14T10:58:22.886Z,59.30
2022-08-14T10:59:22.871Z,58.17
2022-08-14T11:00:30.364Z,59.94
2022-08-14T11:01:23.852Z,61.55
2022-08-14T11:02:35.919Z,63.00
2022-08-14T11:03:26.750Z,61.07
2022-08-14T11:04:25.129Z,61.87
2022-08-14T11:05:22.810Z,59.94
2022-08-14T11:06:24.470Z,59.30
2022-08-14T11:07:22.793Z,59.94
2022-08-14T11:08:22.804Z,59.94
2022-08-14T11:09:22.774Z,60.59
2022-08-14T11:10:22.764Z,60.75
2022-08-14T11:11:22.752Z,58.97
2022-08-14T11:12:39.916Z,58.65
2022-08-14T11:13:24.180Z,59.46
2022-08-14T11:14:23.020Z,59.62
2022-08-14T11:15:22.708Z,59.46
2022-08-14T11:16:22.709Z,59.94
2022-08-14T11:17:22.696Z,58.97
2022-08-14T11:18:30.264Z,61.23
2022-08-14T11:19:24.387Z,61.07
2022-08-14T11:20:23.946Z,60.59
2022-08-14T11:21:22.655Z,61.39
2022-08-14T11:22:55.745Z,61.23
2022-08-14T11:23:23.673Z,62.68
2022-08-14T11:24:55.323Z,59.30
2022-08-14T11:25:23.777Z,59.30
2022-08-14T11:26:22.602Z,58.65
2022-08-14T11:27:25.754Z,59.78
2022-08-14T11:28:47.832Z,61.23
2022-08-14T11:29:24.602Z,60.59
2022-08-14T11:30:48.947Z,60.42
2022-08-14T11:31:23.965Z,60.59
2022-08-14T11:32:22.556Z,61.55
2022-08-14T11:33:22.533Z,60.42
2022-08-14T11:34:29.992Z,61.07
2022-08-14T11:35:23.517Z,61.39
2022-08-14T11:36:22.508Z,61.23
2022-08-14T11:37:33.866Z,60.59
2022-08-14T11:38:24.490Z,59.78
2022-08-14T11:39:33.598Z,60.26
2022-08-14T11:40:28.551Z,60.10
2022-08-14T11:41:24.734Z,61.55
2022-08-14T11:42:56.388Z,60.42
2022-08-14T11:43:29.384Z,59.62
2022-08-14T11:44:46.197Z,58.97
2022-08-14T11:45:23.753Z,56.56
2022-08-14T11:46:29.534Z,58.49
2022-08-14T11:47:23.396Z,58.81
2022-08-14T11:49:01.727Z,59.94
2022-08-14T11:49:23.400Z,59.14
2022-08-14T11:50:33.541Z,60.10
2022-08-14T11:51:23.920Z,59.62
2022-08-14T11:52:22.347Z,58.01
2022-08-14T11:53:22.354Z,59.14
2022-08-14T11:54:34.004Z,58.81
2022-08-14T11:55:26.175Z,60.75
2022-08-14T11:56:25.514Z,59.78
2022-08-14T11:57:22.878Z,57.52
2022-08-14T11:58:24.103Z,60.10
2022-08-14T11:59:26.239Z,59.46
2022-08-14T12:00:22.274Z,59.30
2022-08-14T12:01:23.262Z,58.81
2022-08-14T12:03:01.058Z,60.26
2022-08-14T12:03:37.676Z,60.42
2022-08-14T12:04:33.052Z,60.59
2022-08-14T12:05:23.221Z,60.59
2022-08-14T12:06:29.377Z,60.42
2022-08-14T12:07:23.204Z,62.20
2022-08-14T12:08:24.664Z,63.16
2022-08-14T12:09:23.199Z,61.71
2022-08-14T12:10:26.691Z,60.59
2022-08-14T12:11:23.170Z,61.23
2022-08-14T12:12:36.076Z,60.91
2022-08-14T12:13:23.147Z,59.78
2022-08-14T12:14:30.298Z,60.75
2022-08-14T12:15:23.128Z,60.42
2022-08-14T12:16:22.795Z,59.46
2022-08-14T12:17:23.943Z,60.10
2022-08-14T12:18:22.107Z,59.46
2022-08-14T12:19:22.155Z,60.10
2022-08-14T12:20:32.427Z,61.87
2022-08-14T12:21:23.099Z,58.65
2022-08-14T12:22:29.665Z,60.10
2022-08-14T12:23:23.060Z,60.26
2022-08-14T12:24:31.830Z,60.26
2022-08-14T12:25:24.559Z,59.62
2022-08-14T12:26:39.792Z,61.07
2022-08-14T12:27:24.874Z,59.62
2022-08-14T12:28:27.040Z,58.49
2022-08-14T12:29:23.010Z,59.46
2022-08-14T12:30:22.019Z,60.59
2022-08-14T12:31:21.986Z,61.39
2022-08-14T12:32:21.976Z,59.62
2022-08-14T12:33:21.968Z,59.30
2022-08-14T12:34:24.293Z,59.78
2022-08-14T12:35:21.967Z,58.65
2022-08-14T12:36:21.943Z,59.14
2022-08-14T12:37:21.932Z,58.81
2022-08-14T12:38:21.923Z,59.14
2022-08-14T12:39:21.956Z,58.49
2022-08-14T12:40:21.921Z,60.59
2022-08-14T12:41:22.088Z,59.30
2022-08-14T12:42:27.262Z,61.71
2022-08-14T12:43:22.890Z,57.36
2022-08-14T12:44:21.872Z,61.07
2022-08-14T12:45:21.870Z,59.62
2022-08-14T12:46:22.424Z,61.71
2022-08-14T12:47:22.837Z,58.81
2022-08-14T12:48:31.631Z,61.39
2022-08-14T12:49:25.996Z,61.07
2022-08-14T12:50:21.824Z,61.87
2022-08-14T12:51:21.837Z,61.55
2022-08-14T12:52:36.345Z,59.30
2022-08-14T12:53:22.784Z,62.84
2022-08-14T12:54:27.549Z,59.14